Time;durP1;ratioP1;P1;durP2;ratioP2;P2;SDS_P1;SDS_P2;PMS_P1;PMS_P2;Temp;Humidity;BMP_temperature;BMP_pressure;BME280_temperature;BME280_humidity;BME280_pressure;Samples;Min_cycle;Max_cycle;Signal;HPM_P1;HPM_P2
2024/01/20 00:01:55;;;;;;;3.75;2.22;;;;;;;7.00;55.27;99307.31;4882306;29;20035;-93
2024/01/20 00:04:21;;;;;;;3.70;1.90;;;;;;;7.08;55.32;99306.88;4877582;29;20036;-92
2024/01/20 00:06:46;;;;;;;3.80;1.50;;;;;;;7.23;53.68;99314.31;4887675;29;20095;-93
2024/01/20 00:09:12;;;;;;;1.13;1.00;;;;;;;7.19;53.00;99323.09;4887861;29;20410;-93
2024/01/20 00:11:40;;;;;;;1.70;1.20;;;;;;;6.90;53.17;99295.66;4888303;29;20391;-93
2024/01/20 00:14:06;;;;;;;1.33;1.08;;;;;;;6.95;52.93;99315.28;4888372;29;20034;-91
2024/01/20 00:16:31;;;;;;;1.80;1.30;;;;;;;6.99;53.14;99321.75;4888456;29;20115;-94
2024/01/20 00:18:59;;;;;;;2.72;1.20;;;;;;;6.98;52.94;99330.03;4887373;29;20036;-93
2024/01/20 00:21:24;;;;;;;2.47;1.50;;;;;;;6.85;52.99;99317.81;4889472;29;20039;-94
2024/01/20 00:23:50;;;;;;;1.38;1.10;;;;;;;6.83;53.82;99323.41;4888857;29;20360;-95
2024/01/20 00:26:16;;;;;;;2.00;1.48;;;;;;;6.84;54.09;99341.06;4882043;29;20039;-93
2024/01/20 00:28:41;;;;;;;1.75;1.20;;;;;;;6.77;54.17;99324.38;4879408;29;20463;-93
2024/01/20 00:31:07;;;;;;;2.05;1.30;;;;;;;7.00;53.41;99360.84;4896740;29;20039;-92
2024/01/20 00:33:32;;;;;;;1.77;1.23;;;;;;;6.89;53.69;99337.69;4875617;29;20036;-93
2024/01/20 00:35:58;;;;;;;3.05;1.15;;;;;;;6.84;54.40;99333.03;4872671;29;20031;-93
2024/01/20 00:38:25;;;;;;;1.85;1.25;;;;;;;6.80;54.45;99352.50;4871883;29;20044;-93
2024/01/20 00:40:51;;;;;;;1.52;1.23;;;;;;;6.90;54.50;99355.34;4873043;29;20119;-93
2024/01/20 00:43:16;;;;;;;1.35;1.00;;;;;;;6.91;53.87;99350.78;4871116;29;20032;-93
2024/01/20 00:45:42;;;;;;;2.38;1.20;;;;;;;6.98;53.72;99348.78;4872208;29;20040;-93
2024/01/20 00:48:07;;;;;;;2.03;1.05;;;;;;;6.95;53.14;99362.63;4872403;29;20047;-94
2024/01/20 00:50:33;;;;;;;1.30;1.00;;;;;;;6.95;52.84;99378.69;4872308;29;20028;-92
2024/01/20 00:52:58;;;;;;;1.92;1.17;;;;;;;6.87;53.30;99382.59;4888279;29;20032;-93
2024/01/20 00:55:24;;;;;;;3.58;1.08;;;;;;;6.88;53.70;99386.88;4872793;29;20115;-93
2024/01/20 00:57:49;;;;;;;1.88;1.30;;;;;;;6.66;54.08;99384.13;4871199;29;20040;-93
2024/01/20 01:00:15;;;;;;;2.88;1.63;;;;;;;6.64;54.27;99392.41;4872227;29;20035;-92
2024/01/20 01:02:41;;;;;;;2.10;1.52;;;;;;;6.71;54.91;99383.41;4887351;29;20383;-92
2024/01/20 01:05:07;;;;;;;2.33;1.50;;;;;;;6.86;54.58;99399.69;4887442;29;20020;-93
2024/01/20 01:07:33;;;;;;;2.05;1.52;;;;;;;6.81;54.32;99384.38;4887443;29;20028;-93
2024/01/20 01:09:59;;;;;;;2.78;1.25;;;;;;;6.55;54.30;99385.81;4895883;29;20094;-93
2024/01/20 01:12:24;;;;;;;2.13;1.42;;;;;;;6.45;54.35;99370.41;4899357;29;20043;-94
2024/01/20 01:14:50;;;;;;;1.67;1.23;;;;;;;6.65;54.83;99383.31;4894828;29;20028;-93
2024/01/20 01:17:18;;;;;;;2.92;1.70;;;;;;;6.65;54.03;99388.66;4914194;29;20028;-93
2024/01/20 01:19:45;;;;;;;3.63;1.30;;;;;;;6.43;54.51;99382.38;4900642;29;20829;-93
2024/01/20 01:22:10;;;;;;;2.95;2.00;;;;;;;6.42;55.01;99413.69;4905816;29;20410;-93
2024/01/20 01:24:37;;;;;;;2.20;1.40;;;;;;;6.31;54.75;99386.97;4904205;29;20036;-93
2024/01/20 01:27:04;;;;;;;1.88;1.55;;;;;;;6.56;54.37;99419.56;4880983;29;20095;-93
2024/01/20 01:29:29;;;;;;;2.90;1.30;;;;;;;6.43;54.64;99399.28;4881834;29;20075;-94
2024/01/20 01:31:55;;;;;;;1.58;1.33;;;;;;;6.42;54.14;99412.88;4898108;29;20028;-93
2024/01/20 01:34:20;;;;;;;2.30;1.50;;;;;;;6.36;54.07;99436.03;4872766;29;20028;-93
2024/01/20 01:36:46;;;;;;;1.90;1.20;;;;;;;6.01;54.70;99442.31;4887120;29;20410;-93
2024/01/20 01:39:11;;;;;;;1.73;1.50;;;;;;;6.18;54.18;99434.34;4903788;29;21577;-91
2024/01/20 01:41:37;;;;;;;2.28;1.45;;;;;;;6.16;53.85;99441.78;4926994;29;20035;-91
2024/01/20 01:44:02;;;;;;;2.35;1.40;;;;;;;5.98;54.58;99444.66;4919878;29;20495;-91
2024/01/20 01:46:28;;;;;;;2.15;1.40;;;;;;;6.09;53.82;99445.66;4895899;29;20043;-91
2024/01/20 01:48:54;;;;;;;2.50;1.52;;;;;;;6.07;53.03;99473.44;4884042;29;20493;-92
2024/01/20 01:51:20;;;;;;;1.80;1.40;;;;;;;5.89;54.59;99476.22;4885659;29;20036;-90
2024/01/20 01:53:47;;;;;;;2.65;1.30;;;;;;;5.99;54.72;99495.19;4901759;29;20036;-90
2024/01/20 01:56:13;;;;;;;1.73;1.40;;;;;;;5.85;55.59;99491.94;4886514;29;20021;-90
2024/01/20 01:58:38;;;;;;;2.95;1.20;;;;;;;5.85;54.44;99480.41;4886237;29;20447;-91
2024/01/20 02:01:04;;;;;;;1.30;1.20;;;;;;;5.88;54.44;99467.41;4885677;29;20506;-90
2024/01/20 02:03:29;;;;;;;1.75;1.50;;;;;;;5.93;53.32;99474.72;4886537;29;20063;-90
2024/01/20 02:05:55;;;;;;;2.25;1.60;;;;;;;5.84;53.06;99468.91;4885196;29;20028;-90
2024/01/20 02:08:20;;;;;;;3.22;1.60;;;;;;;5.74;53.51;99494.63;4882057;29;20028;-91
2024/01/20 02:10:46;;;;;;;2.95;1.70;;;;;;;5.48;54.38;99488.72;4882247;29;20039;-91
2024/01/20 02:13:13;;;;;;;2.85;1.60;;;;;;;5.42;54.94;99482.44;4910557;29;20032;-91
2024/01/20 02:15:38;;;;;;;2.85;1.75;;;;;;;5.24;55.95;99495.88;4880634;29;20024;-91
2024/01/20 02:18:04;;;;;;;3.63;2.28;;;;;;;5.49;55.38;99522.38;4893139;29;20121;-91
2024/01/20 02:20:29;;;;;;;2.50;1.80;;;;;;;5.45;54.92;99510.53;4888927;29;20742;-91
2024/01/20 02:22:55;;;;;;;3.30;2.17;;;;;;;5.38;55.69;99507.16;4891702;29;20087;-91
2024/01/20 02:25:20;;;;;;;2.35;1.70;;;;;;;5.34;54.31;99514.81;4882062;29;20020;-91
2024/01/20 02:27:46;;;;;;;2.65;2.00;;;;;;;5.29;55.55;99521.88;4908081;29;20035;-91
2024/01/20 02:30:11;;;;;;;3.85;2.22;;;;;;;5.31;55.43;99541.16;4897012;29;20035;-91
2024/01/20 02:32:37;;;;;;;2.58;2.00;;;;;;;5.25;55.57;99532.22;4891147;29;20036;-91
2024/01/20 02:35:03;;;;;;;2.58;2.10;;;;;;;5.13;56.68;99534.84;4922073;29;20032;-91
2024/01/20 02:37:28;;;;;;;2.40;1.80;;;;;;;5.20;56.26;99538.22;4892279;29;20050;-92
2024/01/20 02:39:54;;;;;;;2.60;1.70;;;;;;;5.04;56.11;99531.72;4892432;29;20027;-91
2024/01/20 02:42:19;;;;;;;2.45;1.70;;;;;;;5.20;56.91;99553.44;4900659;29;20493;-91
2024/01/20 02:44:45;;;;;;;2.90;2.15;;;;;;;5.18;56.22;99534.97;4902116;29;20027;-91
2024/01/20 02:47:10;;;;;;;2.83;2.00;;;;;;;5.19;56.17;99541.16;4883024;29;20032;-91
2024/01/20 02:49:36;;;;;;;3.70;2.25;;;;;;;5.05;56.59;99556.53;4877715;29;20032;-91
2024/01/20 02:52:01;;;;;;;3.25;2.40;;;;;;;4.92;57.64;99546.88;4885202;29;20024;-91
2024/01/20 02:54:27;;;;;;;2.92;2.30;;;;;;;4.72;58.45;99551.66;4871514;29;20422;-91
2024/01/20 02:56:52;;;;;;;3.55;2.30;;;;;;;4.89;58.33;99563.31;4869636;29;20036;-91
2024/01/20 02:59:18;;;;;;;3.10;2.40;;;;;;;4.68;59.12;99558.47;4854528;29;20056;-91
2024/01/20 03:01:43;;;;;;;2.53;2.15;;;;;;;4.73;59.38;99572.78;4870072;29;20582;-92
2024/01/20 03:04:09;;;;;;;2.95;2.30;;;;;;;4.35;59.71;99567.69;4885890;29;20043;-90
2024/01/20 03:06:34;;;;;;;2.88;2.25;;;;;;;4.22;60.72;99574.81;4854905;29;20036;-91
2024/01/20 03:09:00;;;;;;;2.65;2.13;;;;;;;4.09;60.99;99582.94;4885103;29;20052;-91
2024/01/20 03:11:25;;;;;;;2.90;2.30;;;;;;;4.08;62.03;99599.16;4886569;29;20024;-90
2024/01/20 03:13:51;;;;;;;4.65;2.42;;;;;;;4.06;62.33;99596.69;4870884;29;20035;-91
2024/01/20 03:16:17;;;;;;;3.30;2.33;;;;;;;3.97;62.92;99598.03;4885024;29;20024;-91
2024/01/20 03:18:42;;;;;;;2.90;2.50;;;;;;;3.72;63.66;99582.06;4887985;29;20025;-91
2024/01/20 03:21:08;;;;;;;3.90;2.78;;;;;;;3.78;63.64;99594.50;4895583;29;20031;-91
2024/01/20 03:23:33;;;;;;;4.97;2.95;;;;;;;3.83;64.34;99603.47;4893728;29;20020;-91
2024/01/20 03:26:05;;;;;;;3.03;2.50;;;;;;;3.59;65.82;99598.94;4910792;29;20097;-90
2024/01/20 03:28:30;;;;;;;3.85;2.85;;;;;;;3.57;66.40;99612.50;4908682;29;20032;-91
2024/01/20 03:30:56;;;;;;;3.53;2.88;;;;;;;3.72;67.21;99627.34;4881985;29;20032;-91
2024/01/20 03:33:21;;;;;;;3.67;2.75;;;;;;;3.78;67.09;99629.94;4901666;29;20499;-91
2024/01/20 03:35:47;;;;;;;3.00;2.67;;;;;;;3.67;67.87;99635.16;4887528;29;20016;-91
2024/01/20 03:38:12;;;;;;;5.60;3.00;;;;;;;3.71;68.25;99650.47;4888528;29;20028;-91
2024/01/20 03:40:38;;;;;;;4.63;3.55;;;;;;;3.60;69.05;99654.66;4887650;29;20037;-91
2024/01/20 03:43:04;;;;;;;4.40;3.55;;;;;;;3.54;69.03;99646.72;4904262;29;20051;-91
2024/01/20 03:45:29;;;;;;;4.28;3.08;;;;;;;3.35;69.99;99651.94;4921223;29;20016;-90
2024/01/20 03:47:55;;;;;;;4.13;3.40;;;;;;;3.37;70.27;99654.41;4888239;29;20406;-91
2024/01/20 03:50:20;;;;;;;4.53;3.17;;;;;;;3.36;70.24;99658.06;4873690;29;20038;-91
2024/01/20 03:52:47;;;;;;;4.13;3.72;;;;;;;3.12;70.67;99664.97;4904268;29;20016;-91
2024/01/20 03:55:12;;;;;;;3.97;3.35;;;;;;;3.31;71.30;99672.03;4887847;29;20028;-90
2024/01/20 03:57:38;;;;;;;3.75;3.13;;;;;;;3.30;70.75;99674.91;4888134;29;20039;-92
2024/01/20 04:00:04;;;;;;;5.15;3.67;;;;;;;3.17;72.35;99668.63;4887389;29;20048;-90
2024/01/20 04:02:30;;;;;;;4.35;2.67;;;;;;;3.25;71.05;99686.19;4888506;29;20039;-91
2024/01/20 04:04:56;;;;;;;3.50;2.78;;;;;;;3.09;71.29;99668.88;4888428;29;20087;-90
2024/01/20 04:07:21;;;;;;;3.03;2.63;;;;;;;3.10;71.79;99670.50;4871465;29;20028;-91
2024/01/20 04:09:47;;;;;;;2.90;2.30;;;;;;;2.97;71.39;99674.06;4888109;29;20176;-90
2024/01/20 04:12:12;;;;;;;2.10;1.80;;;;;;;3.03;71.14;99694.50;4871965;29;20039;-90
2024/01/20 04:14:38;;;;;;;2.42;2.13;;;;;;;2.99;72.03;99714.56;4873127;29;20092;-90
2024/01/20 04:17:03;;;;;;;2.10;1.80;;;;;;;2.98;71.39;99702.28;4881026;29;20020;-90
2024/01/20 04:19:29;;;;;;;2.97;2.20;;;;;;;2.86;72.94;99703.94;4880758;29;20030;-90
2024/01/20 04:21:54;;;;;;;3.10;2.53;;;;;;;2.91;71.52;99725.44;4882074;29;20028;-90
2024/01/20 04:24:20;;;;;;;3.08;2.17;;;;;;;2.93;71.86;99723.38;4880668;29;20105;-90
2024/01/20 04:26:45;;;;;;;2.50;2.15;;;;;;;2.87;71.68;99736.69;4874493;29;20146;-90
2024/01/20 04:29:11;;;;;;;2.40;2.00;;;;;;;2.92;71.22;99735.03;4888921;29;20035;-90
2024/01/20 04:31:37;;;;;;;2.40;2.00;;;;;;;2.82;71.92;99737.31;4886932;29;20024;-90
2024/01/20 04:34:02;;;;;;;2.83;2.10;;;;;;;2.94;71.94;99764.06;4887629;29;20475;-90
2024/01/20 04:36:28;;;;;;;2.38;2.10;;;;;;;2.96;71.48;99767.34;4887761;29;20028;-91
2024/01/20 04:38:53;;;;;;;2.83;2.20;;;;;;;2.72;72.33;99745.72;4902375;29;20032;-91
2024/01/20 04:41:19;;;;;;;2.70;2.03;;;;;;;2.53;73.68;99739.44;4888983;29;20032;-91
2024/01/20 04:43:44;;;;;;;2.42;2.00;;;;;;;2.58;72.76;99744.94;4919514;29;20032;-91
2024/01/20 04:46:10;;;;;;;3.55;2.10;;;;;;;2.68;72.24;99751.66;4887883;29;20053;-91
2024/01/20 04:48:35;;;;;;;3.72;1.98;;;;;;;2.65;72.58;99760.84;4872173;29;20024;-91
2024/01/20 04:51:01;;;;;;;4.68;1.80;;;;;;;2.48;72.93;99763.13;4870953;29;20034;-91
2024/01/20 04:53:26;;;;;;;2.10;1.88;;;;;;;2.66;72.99;99767.81;4887907;29;20024;-90
2024/01/20 04:55:52;;;;;;;2.40;1.98;;;;;;;2.52;73.60;99748.41;4872157;29;20040;-91
2024/01/20 04:58:17;;;;;;;2.72;1.80;;;;;;;2.62;73.75;99770.06;4885683;29;20056;-92
2024/01/20 05:00:44;;;;;;;2.22;1.85;;;;;;;2.52;72.68;99766.22;4871850;29;20032;-91
2024/01/20 05:03:10;;;;;;;2.00;1.65;;;;;;;2.50;72.46;99765.59;4886642;29;20020;-91
2024/01/20 05:05:35;;;;;;;1.80;1.55;;;;;;;2.56;73.25;99778.88;4871617;29;20092;-91
2024/01/20 05:08:01;;;;;;;2.38;1.48;;;;;;;2.39;72.80;99778.47;4902252;29;20096;-91
2024/01/20 05:10:27;;;;;;;2.20;1.70;;;;;;;2.35;73.73;99803.00;4886110;29;20387;-91
2024/01/20 05:12:52;;;;;;;2.65;1.50;;;;;;;2.52;73.82;99808.72;4902801;29;20031;-90
2024/01/20 05:15:17;;;;;;;2.40;1.83;;;;;;;2.41;72.84;99829.59;4870268;29;20028;-90
2024/01/20 05:17:43;;;;;;;2.90;1.98;;;;;;;2.16;74.47;99815.25;4886628;29;20020;-90
2024/01/20 05:20:12;;;;;;;3.47;2.22;;;;;;;2.28;73.24;99818.13;4871890;29;20028;-90
2024/01/20 05:22:37;;;;;;;4.00;1.80;;;;;;;2.44;72.98;99836.31;4870427;29;20097;-89
2024/01/20 05:25:03;;;;;;;2.50;1.80;;;;;;;2.36;72.62;99849.81;4886657;29;20039;-91
2024/01/20 05:27:29;;;;;;;3.13;2.10;;;;;;;2.21;73.17;99829.56;4871967;29;20039;-90
2024/01/20 05:29:55;;;;;;;2.30;2.00;;;;;;;2.37;73.29;99833.66;4871053;29;20028;-90
2024/01/20 05:32:20;;;;;;;2.15;1.75;;;;;;;2.17;74.11;99830.97;4902270;29;20024;-90
2024/01/20 05:34:46;;;;;;;2.40;1.83;;;;;;;2.11;74.77;99828.31;4917035;29;20392;-90
2024/01/20 05:37:11;;;;;;;2.58;1.90;;;;;;;2.26;74.39;99838.75;4887569;29;20020;-90
2024/01/20 05:39:37;;;;;;;3.10;2.40;;;;;;;2.13;74.86;99837.72;4871697;29;20028;-90
2024/01/20 05:42:03;;;;;;;3.30;2.05;;;;;;;1.99;75.39;99809.50;4882313;29;20024;-89
2024/01/20 05:44:28;;;;;;;2.88;2.00;;;;;;;2.08;75.05;99828.72;4883226;29;20024;-90
2024/01/20 05:46:54;;;;;;;3.33;2.00;;;;;;;2.09;74.30;99841.78;4900125;29;20406;-90
2024/01/20 05:49:19;;;;;;;2.60;1.80;;;;;;;2.17;73.17;99844.25;4919806;29;20023;-90
2024/01/20 05:51:44;;;;;;;2.65;1.92;;;;;;;2.23;72.96;99850.59;4875877;29;20040;-90
2024/01/20 05:54:10;;;;;;;2.30;1.90;;;;;;;2.17;73.60;99859.38;4897419;29;20020;-91
2024/01/20 05:56:35;;;;;;;2.40;1.70;;;;;;;2.21;73.38;99853.47;4895771;29;20020;-91
2024/01/20 05:59:01;;;;;;;2.65;1.75;;;;;;;2.05;74.21;99831.78;4904456;29;20059;-91
2024/01/20 06:01:27;;;;;;;2.70;2.33;;;;;;;2.21;73.85;99852.66;4892815;29;20035;-91
2024/01/20 06:03:53;;;;;;;2.35;2.13;;;;;;;2.37;73.92;99857.59;4909142;29;20031;-91
2024/01/20 06:06:18;;;;;;;2.30;2.00;;;;;;;2.30;73.65;99854.09;4892887;29;20024;-91
2024/01/20 06:08:44;;;;;;;2.42;1.90;;;;;;;2.36;73.34;99860.44;4903185;29;20078;-91
2024/01/20 06:11:10;;;;;;;2.63;2.05;;;;;;;2.47;72.39;99875.78;4902327;29;20075;-89
2024/01/20 06:13:37;;;;;;;3.30;2.20;;;;;;;2.29;73.12;99864.94;4895603;29;20032;-90
2024/01/20 06:16:04;;;;;;;3.75;2.72;;;;;;;2.27;73.18;99859.00;4896441;29;20024;-90
2024/01/20 06:18:31;;;;;;;4.70;2.65;;;;;;;2.23;73.97;99861.25;4891136;29;20020;-89
2024/01/20 06:20:59;;;;;;;5.45;2.65;;;;;;;2.51;73.06;99892.13;4909906;29;20052;-89
2024/01/20 06:23:25;;;;;;;5.80;2.95;;;;;;;2.56;73.04;99901.16;4889837;29;20032;-89
2024/01/20 06:25:50;;;;;;;6.20;3.28;;;;;;;2.58;72.33;99890.31;4889460;29;20176;-89
2024/01/20 06:28:17;;;;;;;6.18;3.35;;;;;;;2.49;72.61;99884.38;4874673;29;20498;-91
2024/01/20 06:30:43;;;;;;;6.85;3.35;;;;;;;2.42;73.05;99891.50;4912632;29;20078;-91
2024/01/20 06:33:09;;;;;;;6.20;3.30;;;;;;;2.55;73.06;99890.72;4884270;29;20490;-91
2024/01/20 06:35:34;;;;;;;7.68;3.03;;;;;;;2.49;72.20;99879.06;4882350;29;20055;-91
2024/01/20 06:38:00;;;;;;;5.95;3.28;;;;;;;2.46;73.42;99884.78;4919965;29;20035;-90
2024/01/20 06:40:25;;;;;;;4.40;2.85;;;;;;;2.46;72.79;99876.81;4892822;29;20024;-91
2024/01/20 06:42:51;;;;;;;3.83;2.65;;;;;;;2.80;70.63;99905.06;4923244;29;20063;-91
2024/01/20 06:45:16;;;;;;;4.40;2.65;;;;;;;2.71;70.73;99900.94;4881519;29;20028;-92
2024/01/20 06:47:42;;;;;;;7.55;3.83;;;;;;;2.70;70.61;99906.47;4895820;29;20020;-91
2024/01/20 06:50:08;;;;;;;5.60;2.72;;;;;;;2.61;69.78;99898.72;4884164;29;20028;-91
2024/01/20 06:52:34;;;;;;;3.38;2.17;;;;;;;2.68;71.44;99924.47;4877293;29;20028;-92
2024/01/20 06:54:59;;;;;;;3.58;2.72;;;;;;;2.56;71.84;99918.94;4894701;29;20088;-91
2024/01/20 06:57:25;;;;;;;5.82;2.97;;;;;;;2.54;72.09;99902.38;4893667;29;20388;-90
2024/01/20 06:59:50;;;;;;;6.97;3.03;;;;;;;2.50;72.04;99925.88;4893585;29;20052;-91
2024/01/20 07:02:16;;;;;;;7.50;3.15;;;;;;;2.54;71.42;99918.31;4889195;29;20068;-91
2024/01/20 07:04:41;;;;;;;4.65;3.13;;;;;;;2.42;72.39;99923.41;4887988;29;20087;-90
2024/01/20 07:07:07;;;;;;;7.15;4.90;;;;;;;2.49;71.87;99937.53;4889270;29;20060;-91
2024/01/20 07:09:37;;;;;;;6.13;3.45;;;;;;;2.43;73.09;99941.00;4888409;29;20024;-89
2024/01/20 07:12:03;;;;;;;5.43;3.85;;;;;;;2.50;72.00;99933.84;4889061;29;20031;-91
2024/01/20 07:14:29;;;;;;;7.35;4.82;;;;;;;2.78;71.11;99962.09;4889190;29;20012;-90
2024/01/20 07:16:55;;;;;;;11.80;6.32;;;;;;;2.69;71.77;99940.22;4872604;29;20035;-90
2024/01/20 07:19:20;;;;;;;7.18;3.88;;;;;;;2.79;70.91;99963.75;4888818;29;20028;-92
2024/01/20 07:21:46;;;;;;;7.28;3.40;;;;;;;2.51;72.46;99950.59;4880305;29;20023;-89
2024/01/20 07:24:14;;;;;;;6.22;3.22;;;;;;;2.63;72.20;99956.97;4881839;29;20039;-90
2024/01/20 07:26:39;;;;;;;4.88;3.33;;;;;;;2.59;72.80;99974.34;4881115;29;20024;-91
2024/01/20 07:29:05;;;;;;;8.70;4.80;;;;;;;2.64;72.03;99977.25;4914056;29;20024;-90
2024/01/20 07:31:31;;;;;;;17.27;7.38;;;;;;;2.59;71.49;99964.56;4872854;29;20035;-90
2024/01/20 07:33:56;;;;;;;15.57;7.65;;;;;;;2.65;71.19;99983.38;4888976;29;20035;-91
2024/01/20 07:36:22;;;;;;;13.57;6.43;;;;;;;2.69;71.61;99985.41;4873340;29;20020;-92
2024/01/20 07:38:47;;;;;;;14.45;8.43;;;;;;;2.75;71.71;99989.13;4873518;29;20024;-90
2024/01/20 07:41:13;;;;;;;8.35;4.95;;;;;;;2.91;71.12;100010.00;4887341;29;20039;-91
2024/01/20 07:43:38;;;;;;;7.90;4.60;;;;;;;2.76;71.06;99986.25;4884881;29;20047;-91
2024/01/20 07:46:04;;;;;;;6.38;3.17;;;;;;;2.79;72.08;99999.13;4913726;29;20083;-91
2024/01/20 07:48:30;;;;;;;43.22;14.63;;;;;;;2.90;70.12;100008.34;4879796;29;20032;-91
2024/01/20 07:50:55;;;;;;;16.27;7.28;;;;;;;2.87;69.10;100013.28;4906006;29;20497;-92
2024/01/20 07:53:21;;;;;;;28.45;10.23;;;;;;;2.80;70.03;100013.25;4904815;29;20509;-93
2024/01/20 07:55:46;;;;;;;10.95;4.05;;;;;;;2.60;70.69;100023.84;4904397;29;20024;-92
2024/01/20 07:58:12;;;;;;;14.43;6.20;;;;;;;2.70;69.79;100015.47;4908016;29;20055;-91
2024/01/20 08:00:38;;;;;;;8.57;3.30;;;;;;;2.73;71.18;100026.53;4920964;29;20027;-91
2024/01/20 08:03:03;;;;;;;13.57;4.22;;;;;;;2.78;71.72;100039.22;4880277;29;20024;-92
2024/01/20 08:05:31;;;;;;;6.15;3.28;;;;;;;2.86;70.46;100041.69;4890353;29;20410;-92
2024/01/20 08:07:56;;;;;;;8.02;2.95;;;;;;;2.79;71.87;100046.19;4876164;29;20028;-92
2024/01/20 08:10:26;;;;;;;5.75;2.85;;;;;;;2.75;71.75;100034.31;4905940;29;20123;-92
2024/01/20 08:12:51;;;;;;;8.63;3.53;;;;;;;2.71;71.05;100057.81;4904920;29;20470;-92
2024/01/20 08:15:17;;;;;;;5.00;2.67;;;;;;;2.42;71.58;100043.81;4920799;29;20048;-92
2024/01/20 08:17:42;;;;;;;6.40;3.42;;;;;;;2.43;72.46;100036.69;4904794;29;20016;-92
2024/01/20 08:20:12;;;;;;;10.43;4.97;;;;;;;2.55;72.11;100048.38;4888642;29;20028;-91
2024/01/20 08:22:37;;;;;;;4.70;2.58;;;;;;;2.63;70.54;100058.00;4889140;29;20054;-92
2024/01/20 08:25:06;;;;;;;8.10;3.17;;;;;;;2.73;70.40;100061.09;4889402;29;20020;-93
2024/01/20 08:27:32;;;;;;;5.50;2.70;;;;;;;2.74;71.25;100051.28;4888600;29;20119;-91
2024/01/20 08:30:00;;;;;;;6.57;2.95;;;;;;;2.52;71.57;100066.56;4906345;29;20024;-94
2024/01/20 08:32:26;;;;;;;4.80;2.60;;;;;;;2.59;71.90;100073.56;4891638;29;20048;-93
2024/01/20 08:34:51;;;;;;;3.60;2.45;;;;;;;2.64;72.02;100088.91;4888138;29;20043;-92
2024/01/20 08:37:17;;;;;;;3.22;2.38;;;;;;;2.62;72.02;100078.44;4889645;29;20401;-91
2024/01/20 08:39:42;;;;;;;3.13;2.05;;;;;;;2.56;72.07;100089.06;4888980;29;20028;-92
2024/01/20 08:42:08;;;;;;;2.28;1.85;;;;;;;2.45;73.99;100092.28;4890179;29;20024;-94
2024/01/20 08:44:35;;;;;;;5.70;2.47;;;;;;;2.36;74.21;100092.44;4890239;29;20095;-94
2024/01/20 08:47:00;;;;;;;4.95;3.00;;;;;;;2.21;72.11;100075.81;4891273;29;20048;-95
2024/01/20 08:49:26;;;;;;;4.53;2.55;;;;;;;2.15;73.45;100090.69;4888871;29;20475;-92
2024/01/20 08:51:52;;;;;;;3.08;1.98;;;;;;;2.14;72.75;100096.22;4903940;29;20023;-93
2024/01/20 08:54:18;;;;;;;2.92;1.95;;;;;;;2.08;72.44;100100.47;4903441;29;20111;-93
2024/01/20 08:56:44;;;;;;;2.47;1.85;;;;;;;2.11;72.60;100115.19;4888683;29;20051;-92
2024/01/20 08:59:10;;;;;;;3.97;2.38;;;;;;;1.84;73.46;100111.53;4904011;29;20092;-92
2024/01/20 09:01:35;;;;;;;4.90;2.55;;;;;;;1.84;73.78;100107.03;4892077;29;20027;-93
2024/01/20 09:04:01;;;;;;;3.35;2.45;;;;;;;1.92;72.36;100122.00;4885035;29;20028;-93
2024/01/20 09:06:27;;;;;;;4.20;2.83;;;;;;;1.76;72.97;100108.00;4909037;29;20035;-93
2024/01/20 09:08:52;;;;;;;6.68;3.05;;;;;;;1.80;73.41;100133.16;4877716;29;20023;-93
2024/01/20 09:11:18;;;;;;;3.95;2.70;;;;;;;1.67;72.94;100108.34;4891447;29;20027;-93
2024/01/20 09:13:43;;;;;;;2.72;2.00;;;;;;;1.55;72.82;100132.72;4891691;29;20024;-93
2024/01/20 09:16:09;;;;;;;4.65;2.65;;;;;;;1.65;73.05;100143.03;4886931;29;20080;-92
2024/01/20 09:18:34;;;;;;;4.57;2.33;;;;;;;1.45;74.21;100118.16;4875624;29;20032;-92
2024/01/20 09:21:00;;;;;;;4.10;2.25;;;;;;;1.46;74.35;100130.41;4881452;29;20476;-93
2024/01/20 09:23:28;;;;;;;3.00;1.98;;;;;;;1.53;74.52;100142.72;4865518;29;20047;-92
2024/01/20 09:25:53;;;;;;;2.78;1.90;;;;;;;1.42;74.31;100129.97;4900860;29;20040;-93
2024/01/20 09:28:19;;;;;;;2.47;1.88;;;;;;;1.52;74.58;100132.31;4900563;29;20036;-94
2024/01/20 09:30:45;;;;;;;3.67;1.90;;;;;;;1.49;74.44;100144.09;4893735;29;20490;-93
2024/01/20 09:33:44;;;;;;;4.07;2.40;;;;;;;1.35;74.32;100145.00;4894008;29;20032;-92
2024/01/20 09:36:13;;;;;;;4.45;2.30;;;;;;;1.43;74.07;100139.56;4869357;29;20068;-96
2024/01/20 09:38:50;;;;;;;5.35;2.42;;;;;;;1.42;75.44;100128.13;4916969;29;20068;-96
2024/01/20 09:41:19;;;;;;;5.32;2.67;;;;;;;1.78;74.42;100156.41;4899385;29;20050;-95
2024/01/20 09:43:45;;;;;;;3.72;2.35;;;;;;;1.93;73.74;100174.94;4895770;29;20035;-95
2024/01/20 09:46:10;;;;;;;4.90;2.47;;;;;;;1.86;74.00;100144.03;4895023;29;20072;-95
2024/01/20 09:48:36;;;;;;;5.07;2.35;;;;;;;1.86;72.81;100142.19;4894176;29;20032;-95
2024/01/20 09:51:04;;;;;;;2.17;1.67;;;;;;;1.70;72.04;100158.38;4895228;29;20028;-94
2024/01/20 09:53:33;;;;;;;3.17;1.67;;;;;;;1.75;71.82;100153.34;4894686;29;20015;-95
2024/01/20 09:59:20;;;;;;;5.55;3.05;;;;;;;1.79;73.03;100157.25;4938472;29;20131;-95
2024/01/20 10:01:48;;;;;;;3.17;2.30;;;;;;;1.66;73.00;100175.69;4893475;29;20059;-96
2024/01/20 10:04:15;;;;;;;2.33;1.70;;;;;;;1.60;72.97;100166.69;4909638;29;20612;-92
2024/01/20 10:06:41;;;;;;;3.40;2.45;;;;;;;1.56;73.03;100150.31;4921935;29;20026;-91
2024/01/20 10:09:06;;;;;;;2.95;1.52;;;;;;;1.63;72.02;100165.47;4907612;29;20028;-91
2024/01/20 10:11:32;;;;;;;3.15;1.80;;;;;;;1.77;71.40;100161.94;4890644;29;20028;-90
2024/01/20 10:13:57;;;;;;;1.80;1.38;;;;;;;1.59;71.52;100165.84;4900902;29;20016;-91
2024/01/20 10:16:23;;;;;;;3.15;1.90;;;;;;;1.68;71.56;100181.66;4877738;29;20486;-90
2024/01/20 10:18:48;;;;;;;4.63;2.40;;;;;;;1.82;72.04;100199.34;4912669;29;20023;-90
2024/01/20 10:21:15;;;;;;;3.13;2.20;;;;;;;1.68;72.31;100192.25;4895090;29;20035;-90
2024/01/20 10:23:40;;;;;;;3.72;1.80;;;;;;;1.36;72.08;100174.00;4887128;29;20463;-90
2024/01/20 10:26:06;;;;;;;2.53;1.60;;;;;;;1.64;71.13;100196.31;4886889;29;20035;-91
2024/01/20 10:28:32;;;;;;;3.88;2.05;;;;;;;1.61;71.88;100208.13;4872262;29;20029;-90
2024/01/20 10:30:58;;;;;;;5.57;2.03;;;;;;;1.19;73.05;100191.97;4873956;29;20380;-90
2024/01/20 10:33:24;;;;;;;2.72;2.00;;;;;;;1.21;74.22;100192.63;4891130;29;20119;-90
2024/01/20 10:35:50;;;;;;;5.20;4.00;;;;;;;1.37;74.39;100215.44;4875214;29;20052;-91
2024/01/20 10:38:19;;;;;;;2.90;2.08;;;;;;;1.37;74.37;100211.94;4891194;29;20052;-90
2024/01/20 10:40:46;;;;;;;3.03;1.70;;;;;;;1.25;73.62;100211.63;4877801;29;20433;-90
2024/01/20 10:43:13;;;;;;;4.10;2.35;;;;;;;1.54;73.15;100224.00;4892334;29;20031;-90
2024/01/20 10:45:48;;;;;;;5.20;2.40;;;;;;;1.65;74.03;100227.16;4891333;29;20122;-90
2024/01/20 10:48:21;;;;;;;3.80;2.38;;;;;;;1.46;73.49;100194.09;4926406;29;20092;-89
2024/01/20 10:51:16;;;;;;;2.53;1.70;;;;;;;1.54;72.15;100204.59;4892682;29;20024;-94
2024/01/20 10:53:42;;;;;;;2.47;1.77;;;;;;;1.72;70.92;100220.06;4890541;29;20576;-93
2024/01/20 10:56:13;;;;;;;5.25;2.17;;;;;;;1.65;71.39;100212.06;4892068;29;20020;-93
2024/01/20 10:58:45;;;;;;;3.72;2.38;;;;;;;1.46;71.80;100210.84;4877010;29;20055;-93
2024/01/20 11:01:14;;;;;;;3.50;2.25;;;;;;;1.25;72.04;100218.78;4876740;29;20079;-91
2024/01/20 11:03:40;;;;;;;7.15;3.30;;;;;;;1.14;72.51;100233.31;4891438;29;20032;-91
2024/01/20 11:06:06;;;;;;;3.50;2.00;;;;;;;1.14;72.48;100241.28;4891183;29;20028;-90
2024/01/20 11:08:31;;;;;;;4.75;2.80;;;;;;;1.12;72.10;100225.56;4938368;29;20059;-90
2024/01/20 11:10:57;;;;;;;4.38;2.70;;;;;;;1.18;72.94;100213.38;4880757;29;20019;-91
2024/01/20 11:13:26;;;;;;;5.28;2.55;;;;;;;0.98;72.59;100218.47;4884209;29;20027;-90
2024/01/20 11:15:51;;;;;;;4.30;2.30;;;;;;;0.74;72.94;100230.16;4891378;29;20074;-90
2024/01/20 11:18:18;;;;;;;5.85;2.35;;;;;;;0.69;72.48;100237.84;4905864;29;20024;-91
2024/01/20 11:20:56;;;;;;;2.28;1.48;;;;;;;0.67;74.11;100245.16;4889774;29;20027;-90
2024/01/20 11:23:22;;;;;;;3.72;1.98;;;;;;;0.63;73.63;100231.44;4904540;29;20028;-91
2024/01/20 11:25:47;;;;;;;5.07;1.98;;;;;;;0.45;74.59;100223.03;4904247;29;20039;-90
2024/01/20 11:28:45;;;;;;;3.25;2.22;;;;;;;0.60;75.16;100248.53;4888985;29;20040;-90
2024/01/20 11:31:20;;;;;;;2.28;1.60;;;;;;;0.49;74.49;100221.66;4894903;29;20566;-92
2024/01/20 11:33:46;;;;;;;2.95;1.98;;;;;;;0.59;75.08;100249.53;4904727;29;20106;-90
2024/01/20 11:36:11;;;;;;;2.67;1.63;;;;;;;0.75;74.60;100255.69;4890200;29;20055;-90
2024/01/20 11:38:37;;;;;;;3.40;2.15;;;;;;;0.89;74.23;100254.81;4917419;29;20398;-91